createdAt,value
2019-03-22T00:01:35.318Z,47.17
2019-03-22T00:04:04.318Z,41.40
2019-03-22T00:06:33.422Z,45.47
2019-03-22T00:09:02.439Z,43.87
2019-03-22T00:11:31.460Z,42.23
2019-03-22T00:14:00.474Z,45.90
2019-03-22T00:16:29.559Z,41.60
2019-03-22T00:18:58.666Z,35.90
2019-03-22T00:21:27.745Z,37.73
2019-03-22T00:23:56.740Z,42.77
2019-03-22T00:26:25.811Z,37.43
2019-03-22T00:28:54.868Z,38.40
2019-03-22T00:31:23.905Z,36.53
2019-03-22T00:33:52.888Z,36.10
2019-03-22T00:36:21.951Z,36.63
2019-03-22T00:38:50.927Z,35.37
2019-03-22T00:41:19.922Z,37.33
2019-03-22T00:43:48.946Z,33.87
2019-03-22T00:46:17.920Z,42.97
2019-03-22T00:48:46.988Z,37.17
2019-03-22T00:51:16.055Z,32.80
2019-03-22T00:53:45.035Z,32.33
2019-03-22T00:56:14.048Z,27.07
2019-03-22T00:58:43.083Z,32.20
2019-03-22T01:01:12.187Z,32.07
2019-03-22T01:03:41.385Z,30.43
2019-03-22T01:06:10.431Z,28.30
2019-03-22T01:08:40.616Z,31.63
2019-03-22T01:11:09.656Z,31.23
2019-03-22T01:13:38.678Z,33.37
2019-03-22T01:16:07.681Z,31.27
2019-03-22T01:18:36.672Z,38.50
2019-03-22T01:21:05.669Z,31.37
2019-03-22T01:23:34.720Z,33.97
2019-03-22T01:26:03.721Z,32.77
2019-03-22T01:28:32.778Z,37.33
2019-03-22T01:31:01.842Z,34.50
2019-03-22T01:33:30.826Z,34.57
2019-03-22T01:35:59.868Z,35.53
2019-03-22T01:38:31.322Z,42.07
2019-03-22T01:41:00.310Z,40.37
2019-03-22T01:43:30.205Z,39.40
2019-03-22T01:45:59.196Z,36.77
2019-03-22T01:48:28.245Z,37.67
2019-03-22T01:50:57.241Z,35.43
2019-03-22T01:53:26.226Z,38.10
2019-03-22T01:55:55.199Z,37.77
2019-03-22T01:58:26.617Z,37.67
2019-03-22T02:00:55.580Z,37.07
2019-03-22T02:03:24.637Z,37.17
2019-03-22T02:05:53.605Z,43.03
2019-03-22T02:08:22.654Z,39.20
2019-03-22T02:10:53.713Z,37.47
2019-03-22T02:13:22.452Z,37.90
2019-03-22T02:15:52.824Z,41.13
2019-03-22T02:18:21.856Z,40.60
2019-03-22T02:20:50.834Z,40.80
2019-03-22T02:23:19.894Z,39.97
2019-03-22T02:25:48.961Z,43.33
2019-03-22T02:28:18.017Z,42.03
2019-03-22T02:30:47.018Z,39.80
2019-03-22T02:33:16.016Z,43.03
2019-03-22T02:35:45.075Z,42.83
2019-03-22T02:38:14.061Z,46.27
2019-03-22T02:40:43.063Z,43.67
2019-03-22T02:43:15.987Z,42.07
2019-03-22T02:45:44.996Z,40.10
2019-03-22T02:48:14.066Z,38.67
2019-03-22T02:50:43.031Z,40.43
2019-03-22T02:53:12.027Z,43.93
2019-03-22T02:55:41.128Z,41.40
2019-03-22T02:58:20.404Z,41.27
2019-03-22T03:00:40.852Z,45.97
2019-03-22T03:03:09.851Z,39.73
2019-03-22T03:05:39.931Z,48.67
2019-03-22T03:08:08.938Z,42.80
2019-03-22T03:10:38.019Z,42.73
2019-03-22T03:13:06.985Z,43.00
2019-03-22T03:15:36.308Z,44.77
2019-03-22T03:18:05.385Z,47.60
2019-03-22T03:20:34.431Z,42.50
2019-03-22T03:23:03.505Z,46.60
2019-03-22T03:25:32.531Z,48.50
2019-03-22T03:28:01.528Z,51.27
2019-03-22T03:30:30.564Z,45.57
2019-03-22T03:32:59.588Z,49.60
2019-03-22T03:35:28.560Z,50.73
2019-03-22T03:37:57.603Z,41.23
2019-03-22T03:40:26.702Z,47.87
2019-03-22T03:42:55.782Z,48.33
2019-03-22T03:45:32.454Z,50.37
2019-03-22T03:48:01.515Z,47.13
2019-03-22T03:50:30.589Z,45.43
2019-03-22T03:52:59.695Z,50.47
2019-03-22T03:55:28.827Z,52.43
2019-03-22T03:57:58.175Z,48.90
2019-03-22T04:00:27.233Z,54.33
2019-03-22T04:02:56.243Z,51.53
2019-03-22T04:05:25.433Z,50.60
2019-03-22T04:07:54.484Z,48.80
2019-03-22T04:10:23.465Z,56.53
2019-03-22T04:12:52.456Z,51.63
2019-03-22T04:15:21.513Z,47.00
2019-03-22T04:17:50.492Z,51.70
2019-03-22T04:20:19.491Z,50.33
2019-03-22T04:22:48.468Z,50.40
2019-03-22T04:25:17.547Z,56.40
2019-03-22T04:27:46.634Z,53.83
2019-03-22T04:30:15.653Z,52.40
2019-03-22T04:32:44.691Z,55.93
2019-03-22T04:35:13.758Z,51.13
2019-03-22T04:37:42.815Z,52.43
2019-03-22T04:40:19.982Z,59.53
2019-03-22T04:42:48.970Z,56.17
2019-03-22T04:45:17.988Z,52.10
2019-03-22T04:47:47.638Z,51.23
2019-03-22T04:50:16.636Z,56.70
2019-03-22T04:52:46.347Z,53.03
2019-03-22T04:55:18.109Z,62.30
2019-03-22T04:57:47.271Z,52.33
2019-03-22T05:00:16.543Z,51.57
2019-03-22T05:02:46.217Z,53.73
2019-03-22T05:05:15.372Z,44.93
2019-03-22T05:07:44.755Z,55.87
2019-03-22T05:10:14.352Z,45.40
2019-03-22T05:12:43.920Z,50.70
2019-03-22T05:15:12.804Z,47.93
2019-03-22T05:17:41.935Z,52.17
2019-03-22T05:20:10.936Z,46.63
2019-03-22T05:22:41.061Z,46.77
2019-03-22T05:25:10.575Z,52.67
2019-03-22T05:27:41.160Z,53.93
2019-03-22T05:30:16.249Z,54.37
2019-03-22T05:32:45.262Z,55.53
2019-03-22T05:35:14.339Z,54.80
2019-03-22T05:37:43.426Z,51.37
2019-03-22T05:40:12.432Z,56.93
2019-03-22T05:42:41.518Z,53.73
2019-03-22T05:45:10.542Z,58.60
2019-03-22T05:47:39.605Z,55.97
2019-03-22T05:50:12.780Z,52.50
2019-03-22T05:52:41.822Z,52.63
2019-03-22T05:55:10.953Z,55.60
2019-03-22T05:57:40.168Z,56.73
2019-03-22T06:00:09.344Z,53.50
2019-03-22T06:02:38.453Z,55.80
2019-03-22T06:05:07.742Z,51.93
2019-03-22T06:07:37.169Z,59.37
2019-03-22T06:10:06.431Z,61.73
2019-03-22T06:12:35.471Z,53.23
2019-03-22T06:15:04.587Z,55.13
2019-03-22T06:17:33.691Z,52.83
2019-03-22T06:20:02.742Z,47.33
2019-03-22T06:22:31.751Z,55.17
2019-03-22T06:25:00.754Z,60.63
2019-03-22T06:27:31.301Z,62.17
2019-03-22T06:30:00.428Z,54.90
2019-03-22T06:32:29.402Z,54.90
2019-03-22T06:34:58.480Z,63.67
2019-03-22T06:37:27.522Z,50.87
2019-03-22T06:39:56.586Z,56.83
2019-03-22T06:42:25.593Z,55.00
2019-03-22T06:44:54.643Z,48.33
2019-03-22T06:47:23.622Z,57.60
2019-03-22T06:49:52.649Z,60.17
2019-03-22T06:52:21.709Z,54.50
2019-03-22T06:54:50.686Z,50.30
2019-03-22T06:57:19.726Z,60.50
2019-03-22T06:59:48.721Z,59.90
2019-03-22T07:02:17.685Z,61.17
2019-03-22T07:04:46.715Z,56.43
2019-03-22T07:07:15.736Z,67.17
2019-03-22T07:09:44.770Z,58.13
2019-03-22T07:12:13.761Z,62.57
2019-03-22T07:14:42.859Z,65.67
2019-03-22T07:17:11.923Z,58.27
2019-03-22T07:19:43.095Z,56.67
2019-03-22T07:22:12.133Z,57.83
2019-03-22T07:24:41.156Z,56.43
2019-03-22T07:27:10.208Z,61.03
2019-03-22T07:29:39.277Z,58.17
2019-03-22T07:32:08.263Z,63.57
2019-03-22T07:34:37.355Z,60.50
2019-03-22T07:37:06.327Z,61.90
2019-03-22T07:39:35.314Z,71.43
2019-03-22T07:42:04.334Z,69.70
2019-03-22T07:44:33.391Z,64.63
2019-03-22T07:47:02.364Z,64.97
2019-03-22T07:49:31.412Z,71.57
2019-03-22T07:52:00.417Z,67.00
2019-03-22T07:54:29.493Z,62.90
2019-03-22T07:56:58.471Z,60.83
2019-03-22T07:59:27.492Z,62.23
2019-03-22T08:01:56.507Z,80.80
2019-03-22T08:04:25.517Z,66.20
2019-03-22T08:06:54.570Z,62.40
2019-03-22T08:09:23.671Z,64.47
2019-03-22T08:11:52.985Z,60.23
2019-03-22T08:14:22.150Z,56.57
2019-03-22T08:16:51.124Z,58.60
2019-03-22T08:19:20.125Z,54.00
2019-03-22T08:21:49.165Z,58.93
2019-03-22T08:24:18.209Z,53.50
2019-03-22T08:26:47.278Z,65.17
2019-03-22T08:29:16.266Z,53.00
2019-03-22T08:31:45.332Z,44.63
2019-03-22T08:34:14.343Z,50.20
2019-03-22T08:36:43.449Z,49.37
2019-03-22T08:39:12.525Z,49.33
2019-03-22T08:41:41.557Z,50.20
2019-03-22T08:44:10.668Z,46.90
2019-03-22T08:46:39.772Z,51.17
2019-03-22T08:49:09.620Z,50.73
2019-03-22T08:51:38.896Z,48.03
2019-03-22T08:54:07.954Z,49.27
2019-03-22T08:56:37.054Z,48.70
2019-03-22T08:59:06.114Z,46.33
2019-03-22T09:01:35.102Z,41.93
2019-03-22T09:04:04.241Z,46.50
2019-03-22T09:06:33.749Z,48.03
2019-03-22T09:09:04.530Z,48.77
2019-03-22T09:11:33.575Z,47.30
2019-03-22T09:14:03.142Z,49.23
2019-03-22T09:16:32.324Z,51.50
2019-03-22T09:19:01.320Z,53.07
2019-03-22T09:21:30.400Z,48.40
2019-03-22T09:23:59.631Z,48.37
2019-03-22T09:26:28.689Z,46.67
2019-03-22T09:28:57.772Z,49.57
2019-03-22T09:31:26.860Z,48.33
2019-03-22T09:33:55.875Z,48.03
2019-03-22T09:36:24.911Z,49.03
2019-03-22T09:38:53.890Z,46.37
2019-03-22T09:41:22.938Z,43.83
2019-03-22T09:43:52.036Z,44.87
2019-03-22T09:46:21.124Z,49.23
2019-03-22T09:48:50.229Z,46.67
2019-03-22T09:51:19.229Z,48.87
2019-03-22T09:53:48.291Z,48.57
2019-03-22T09:56:17.418Z,43.90
2019-03-22T09:58:46.451Z,43.33
2019-03-22T10:01:23.616Z,40.10
2019-03-22T10:03:46.279Z,41.83
2019-03-22T10:06:15.345Z,41.90
2019-03-22T10:08:44.405Z,44.17
2019-03-22T10:11:13.521Z,48.03
2019-03-22T10:13:42.653Z,43.33
2019-03-22T10:16:11.704Z,46.27
2019-03-22T10:18:40.861Z,45.87
2019-03-22T10:21:21.917Z,39.80
2019-03-22T10:23:40.728Z,43.20
2019-03-22T10:26:09.821Z,39.30
2019-03-22T10:28:38.930Z,48.37
2019-03-22T10:31:08.349Z,45.60
2019-03-22T10:33:37.478Z,44.60
2019-03-22T10:36:07.025Z,42.87
2019-03-22T10:38:36.302Z,47.13
2019-03-22T10:41:05.740Z,54.93
2019-03-22T10:43:34.962Z,46.83
2019-03-22T10:46:07.753Z,61.47
2019-03-22T10:48:35.440Z,48.77
2019-03-22T10:51:04.972Z,49.00
2019-03-22T10:53:34.038Z,48.37
2019-03-22T10:56:03.107Z,50.60
2019-03-22T10:58:32.223Z,50.67
2019-03-22T11:01:01.410Z,55.23
2019-03-22T11:03:30.507Z,58.93
2019-03-22T11:05:59.529Z,57.07
2019-03-22T11:08:28.598Z,48.00
2019-03-22T11:10:57.621Z,49.03
2019-03-22T11:13:28.752Z,51.57
2019-03-22T11:15:57.985Z,48.13
2019-03-22T11:18:36.786Z,53.43
2019-03-22T11:21:05.086Z,47.37
2019-03-22T11:23:29.514Z,55.83
2019-03-22T11:26:03.994Z,43.23
2019-03-22T11:28:29.271Z,43.23
2019-03-22T11:31:04.690Z,49.70
2019-03-22T11:33:29.109Z,47.53
2019-03-22T11:35:58.227Z,49.50
2019-03-22T11:38:27.235Z,45.93
2019-03-22T11:40:56.757Z,46.23
2019-03-22T11:43:26.027Z,51.00
2019-03-22T11:45:55.164Z,54.97
2019-03-22T11:48:24.134Z,52.50
2019-03-22T11:50:53.167Z,48.63
2019-03-22T11:53:22.229Z,52.13
2019-03-22T11:55:52.959Z,47.63
2019-03-22T11:58:22.030Z,52.60
2019-03-22T12:00:51.172Z,50.20
2019-03-22T12:03:20.245Z,52.47
2019-03-22T12:05:49.313Z,46.87
2019-03-22T12:08:18.494Z,50.43
2019-03-22T12:10:47.579Z,49.80
2019-03-22T12:13:16.623Z,51.43
2019-03-22T12:15:48.631Z,51.13
2019-03-22T12:18:17.688Z,48.47
2019-03-22T12:20:46.686Z,49.13
2019-03-22T12:23:15.763Z,47.37
2019-03-22T12:25:44.868Z,47.80
2019-03-22T12:28:13.968Z,47.40
2019-03-22T12:30:43.095Z,49.40
2019-03-22T12:33:12.111Z,51.10
2019-03-22T12:35:42.643Z,55.97
2019-03-22T12:38:11.839Z,40.70
2019-03-22T12:40:40.836Z,48.67
2019-03-22T12:43:09.943Z,50.57
2019-03-22T12:45:39.485Z,47.30
2019-03-22T12:48:08.494Z,44.93
2019-03-22T12:50:37.877Z,48.30
2019-03-22T12:53:06.951Z,45.23
2019-03-22T12:55:36.109Z,44.70
2019-03-22T12:58:05.241Z,45.43
2019-03-22T13:00:34.286Z,45.73
2019-03-22T13:03:03.262Z,44.73
2019-03-22T13:05:32.281Z,49.47
2019-03-22T13:08:01.375Z,47.57
2019-03-22T13:10:30.467Z,54.87
2019-03-22T13:12:59.836Z,50.37
2019-03-22T13:15:28.806Z,49.67
2019-03-22T13:17:57.834Z,44.73
2019-03-22T13:20:26.838Z,46.47
2019-03-22T13:22:55.850Z,48.03
2019-03-22T13:25:24.943Z,52.03
2019-03-22T13:27:55.589Z,47.27
2019-03-22T13:30:31.339Z,54.77
2019-03-22T13:33:00.431Z,47.57
2019-03-22T13:35:29.573Z,51.87
2019-03-22T13:37:58.669Z,53.37
2019-03-22T13:40:27.660Z,53.27
2019-03-22T13:42:56.731Z,51.73
2019-03-22T13:45:25.721Z,46.77
2019-03-22T13:47:54.862Z,51.03
2019-03-22T13:50:23.908Z,55.47
2019-03-22T13:52:52.946Z,47.83
2019-03-22T13:55:22.050Z,54.07
2019-03-22T13:57:51.224Z,47.63
2019-03-22T14:00:20.457Z,53.37
2019-03-22T14:02:49.501Z,49.00
2019-03-22T14:05:18.654Z,55.60
2019-03-22T14:07:47.731Z,53.20
2019-03-22T14:10:31.612Z,53.37
2019-03-22T14:13:01.079Z,55.63
2019-03-22T14:15:34.917Z,57.50
2019-03-22T14:18:04.036Z,48.90
2019-03-22T14:20:33.120Z,55.67
2019-03-22T14:23:02.173Z,54.90
2019-03-22T14:25:32.126Z,54.87
2019-03-22T14:28:01.322Z,51.77
2019-03-22T14:30:30.441Z,56.40
2019-03-22T14:33:00.837Z,59.70
2019-03-22T14:35:29.973Z,56.70
2019-03-22T14:37:59.003Z,54.23
2019-03-22T14:40:28.138Z,51.90
2019-03-22T14:42:57.177Z,54.23
2019-03-22T14:45:26.291Z,56.50
2019-03-22T14:47:55.387Z,51.20
2019-03-22T14:50:24.397Z,56.17
2019-03-22T14:52:53.598Z,52.50
2019-03-22T14:55:22.708Z,55.23
2019-03-22T14:57:52.413Z,62.40
2019-03-22T15:00:24.345Z,51.00
2019-03-22T15:02:54.963Z,47.47
2019-03-22T15:05:24.095Z,55.57
2019-03-22T15:07:53.110Z,53.70
2019-03-22T15:10:22.221Z,56.23
2019-03-22T15:12:51.688Z,48.97
2019-03-22T15:15:49.009Z,58.83
2019-03-22T15:18:40.060Z,54.20
2019-03-22T15:21:45.019Z,57.10
2019-03-22T15:24:51.627Z,47.87
2019-03-22T15:27:45.392Z,54.70
2019-03-22T15:30:33.500Z,47.80
2019-03-22T15:33:34.112Z,58.10
2019-03-22T15:36:32.928Z,56.77
2019-03-22T15:39:17.713Z,55.50
2019-03-22T15:41:47.071Z,49.40
2019-03-22T15:44:16.235Z,50.40
2019-03-22T15:46:45.360Z,59.23
2019-03-22T15:49:18.535Z,52.23
2019-03-22T15:51:48.837Z,52.37
2019-03-22T15:54:18.089Z,54.60
2019-03-22T15:56:47.210Z,57.70
2019-03-22T15:59:16.293Z,52.00
2019-03-22T16:01:50.940Z,51.07
2019-03-22T16:04:20.044Z,54.47
2019-03-22T16:06:49.205Z,52.33
2019-03-22T16:09:18.329Z,58.27
2019-03-22T16:11:47.354Z,53.43
2019-03-22T16:14:18.753Z,53.57
2019-03-22T16:16:47.865Z,53.80
2019-03-22T16:19:16.914Z,50.93
2019-03-22T16:21:45.929Z,58.50
2019-03-22T16:24:14.964Z,59.60
2019-03-22T16:26:43.969Z,56.67
2019-03-22T16:29:13.024Z,67.10
2019-03-22T16:31:42.105Z,60.47
2019-03-22T16:34:11.107Z,53.20
2019-03-22T16:36:40.211Z,57.40
2019-03-22T16:39:09.187Z,57.03
2019-03-22T16:41:38.201Z,55.43
2019-03-22T16:44:07.248Z,55.07
2019-03-22T16:46:36.385Z,50.30
2019-03-22T16:49:05.501Z,57.90
2019-03-22T16:51:34.587Z,57.67
2019-03-22T16:54:03.673Z,56.20
2019-03-22T16:56:32.666Z,61.03
2019-03-22T16:59:01.745Z,55.03
2019-03-22T17:01:30.891Z,57.97
2019-03-22T17:04:04.337Z,61.43
2019-03-22T17:06:30.791Z,59.23
2019-03-22T17:09:00.473Z,59.73
2019-03-22T17:11:29.625Z,57.33
2019-03-22T17:13:58.785Z,58.83
2019-03-22T17:16:30.625Z,63.20
2019-03-22T17:18:59.793Z,63.83
2019-03-22T17:21:28.907Z,61.97
2019-03-22T17:23:58.091Z,68.00
2019-03-22T17:26:27.244Z,65.23
2019-03-22T17:28:56.315Z,65.73
2019-03-22T17:31:25.408Z,65.47
2019-03-22T17:33:54.513Z,64.63
2019-03-22T17:36:25.759Z,64.10
2019-03-22T17:38:54.995Z,60.30
2019-03-22T17:41:24.298Z,59.70
2019-03-22T17:43:53.471Z,58.03
2019-03-22T17:46:22.666Z,65.03
2019-03-22T17:48:52.077Z,57.33
2019-03-22T17:51:21.142Z,58.83
2019-03-22T17:53:50.275Z,59.40
2019-03-22T17:56:19.302Z,66.13
2019-03-22T17:58:48.429Z,60.20
2019-03-22T18:01:17.635Z,63.43
2019-03-22T18:03:46.753Z,61.53
2019-03-22T18:06:15.905Z,60.70
2019-03-22T18:08:45.020Z,62.37
2019-03-22T18:11:14.292Z,62.60
2019-03-22T18:13:43.543Z,62.07
2019-03-22T18:16:12.667Z,62.83
2019-03-22T18:18:41.786Z,69.40
2019-03-22T18:21:10.857Z,63.73
2019-03-22T18:23:40.274Z,59.63
2019-03-22T18:26:09.525Z,63.60
2019-03-22T18:28:49.915Z,58.53
2019-03-22T18:31:15.103Z,61.97
2019-03-22T18:33:44.317Z,59.20
2019-03-22T18:36:13.334Z,59.13
2019-03-22T18:38:42.627Z,64.33
2019-03-22T18:41:11.795Z,63.43
2019-03-22T18:43:40.941Z,58.33
2019-03-22T18:46:10.524Z,57.47
2019-03-22T18:48:39.554Z,64.70
2019-03-22T18:51:08.837Z,66.30
2019-03-22T18:53:38.052Z,60.47
2019-03-22T18:56:07.253Z,68.53
2019-03-22T18:58:36.379Z,65.97
2019-03-22T19:01:05.499Z,61.43
2019-03-22T19:03:34.587Z,72.40
2019-03-22T19:06:03.689Z,70.50
2019-03-22T19:08:33.023Z,61.53
2019-03-22T19:11:02.068Z,69.07
2019-03-22T19:13:31.175Z,69.17
2019-03-22T19:16:00.265Z,66.80
2019-03-22T19:18:32.777Z,61.27
2019-03-22T19:21:02.071Z,66.97
2019-03-22T19:23:31.216Z,69.87
2019-03-22T19:26:02.944Z,57.07
2019-03-22T19:28:32.027Z,57.20
2019-03-22T19:31:01.159Z,68.27
2019-03-22T19:33:30.312Z,60.90
2019-03-22T19:35:59.836Z,63.13
2019-03-22T19:38:28.944Z,60.90
2019-03-22T19:40:58.127Z,64.27
2019-03-22T19:43:27.315Z,66.33
2019-03-22T19:45:56.470Z,71.27
2019-03-22T19:48:25.698Z,62.67
2019-03-22T19:50:54.911Z,70.03
2019-03-22T19:53:24.077Z,61.43
2019-03-22T19:55:53.219Z,65.07
2019-03-22T19:58:22.450Z,72.13
2019-03-22T20:00:51.579Z,68.13
2019-03-22T20:03:21.685Z,66.17
2019-03-22T20:05:51.010Z,64.00
2019-03-22T20:08:20.152Z,63.77
2019-03-22T20:10:49.366Z,75.20
2019-03-22T20:13:18.521Z,69.73
2019-03-22T20:15:47.966Z,72.87
2019-03-22T20:18:17.174Z,67.57
2019-03-22T20:20:46.406Z,65.10
2019-03-22T20:23:15.634Z,69.43
2019-03-22T20:25:44.847Z,64.33
2019-03-22T20:28:14.103Z,67.17
2019-03-22T20:30:43.621Z,73.97
2019-03-22T20:33:12.836Z,69.27
2019-03-22T20:35:42.015Z,69.10
2019-03-22T20:38:11.264Z,73.67
2019-03-22T20:40:40.600Z,79.10
2019-03-22T20:43:12.655Z,65.43
2019-03-22T20:45:41.822Z,64.00
2019-03-22T20:48:11.090Z,70.37
2019-03-22T20:50:40.219Z,74.43
2019-03-22T20:53:12.011Z,70.67
2019-03-22T20:55:43.283Z,72.97
2019-03-22T20:58:12.588Z,69.10
2019-03-22T21:00:41.942Z,69.30
2019-03-22T21:03:11.239Z,69.70
2019-03-22T21:05:43.308Z,69.93
2019-03-22T21:08:12.460Z,68.63
2019-03-22T21:10:41.557Z,81.03
2019-03-22T21:13:10.747Z,75.20
2019-03-22T21:15:41.796Z,68.07
2019-03-22T21:18:10.885Z,68.00
2019-03-22T21:20:40.007Z,75.67
2019-03-22T21:23:11.707Z,67.97
2019-03-22T21:25:40.838Z,68.03
2019-03-22T21:28:09.944Z,68.37
2019-03-22T21:30:39.023Z,75.93
2019-03-22T21:33:10.304Z,69.50
2019-03-22T21:35:39.352Z,65.53
2019-03-22T21:38:11.106Z,72.40
2019-03-22T21:40:39.231Z,67.57
2019-03-22T21:43:11.308Z,72.07
2019-03-22T21:45:40.452Z,74.53
2019-03-22T21:48:09.521Z,70.73
2019-03-22T21:50:38.991Z,72.43
2019-03-22T21:53:08.319Z,76.40
2019-03-22T21:55:37.335Z,74.77
2019-03-22T21:58:06.902Z,74.87
2019-03-22T22:00:36.515Z,73.17
2019-03-22T22:03:05.527Z,78.60
2019-03-22T22:05:34.663Z,68.07
2019-03-22T22:08:03.738Z,78.47
2019-03-22T22:10:32.903Z,77.10
2019-03-22T22:13:02.008Z,76.27
2019-03-22T22:15:31.121Z,74.97
2019-03-22T22:18:00.530Z,84.50
2019-03-22T22:20:31.284Z,75.13
2019-03-22T22:23:00.418Z,79.03
2019-03-22T22:25:29.918Z,71.97
2019-03-22T22:27:59.080Z,75.37
2019-03-22T22:30:28.183Z,79.33
2019-03-22T22:32:57.261Z,75.03
2019-03-22T22:35:26.606Z,71.07
2019-03-22T22:37:57.412Z,68.50
2019-03-22T22:40:30.732Z,82.50
2019-03-22T22:42:59.859Z,77.77
2019-03-22T22:45:29.198Z,80.27
2019-03-22T22:47:58.229Z,82.10
2019-03-22T22:50:27.539Z,80.97
2019-03-22T22:52:56.611Z,69.97
2019-03-22T22:55:25.698Z,74.63
2019-03-22T22:57:56.789Z,72.93
2019-03-22T23:00:27.422Z,78.97
2019-03-22T23:02:56.458Z,85.80
2019-03-22T23:05:25.522Z,75.50
2019-03-22T23:07:54.592Z,82.47
2019-03-22T23:10:23.618Z,81.53
2019-03-22T23:12:52.720Z,74.47
2019-03-22T23:15:21.788Z,73.03
2019-03-22T23:17:50.896Z,71.20
2019-03-22T23:20:20.010Z,79.60
2019-03-22T23:22:49.090Z,74.57
2019-03-22T23:25:18.113Z,82.37
2019-03-22T23:27:47.210Z,72.17
2019-03-22T23:30:16.292Z,80.93
2019-03-22T23:32:45.354Z,78.40
2019-03-22T23:35:14.447Z,79.53
2019-03-22T23:37:45.221Z,75.50
2019-03-22T23:40:14.261Z,74.43
2019-03-22T23:42:44.369Z,80.07
2019-03-22T23:45:13.523Z,75.47
2019-03-22T23:47:42.556Z,75.97
2019-03-22T23:50:11.563Z,66.30
2019-03-22T23:52:40.736Z,70.80
2019-03-22T23:55:09.919Z,78.17
2019-03-22T23:57:46.676Z,79.83
